Time;durP1;ratioP1;P1;durP2;ratioP2;P2;SDS_P1;SDS_P2;PMS_P1;PMS_P2;Temp;Humidity;BMP_temperature;BMP_pressure;BME280_temperature;BME280_humidity;BME280_pressure;Samples;Min_cycle;Max_cycle;Signal;HPM_P1;HPM_P2
2023/07/11 00:03:33;;;;;;;2.27;2.10;;;25.80;96.40;;;;;;4997002;28;20795;-90
2023/07/11 00:09:29;;;;;;;1.70;1.57;;;25.70;96.40;;;;;;4995410;28;20454;-90
2023/07/11 00:11:56;;;;;;;2.10;1.90;;;25.70;96.50;;;;;;4996560;28;21004;-90
2023/07/11 00:14:23;;;;;;;2.07;1.80;;;25.70;96.40;;;;;;4997010;28;20462;-90
2023/07/11 00:16:50;;;;;;;2.30;1.90;;;25.70;96.40;;;;;;4996747;28;20811;-90
2023/07/11 00:19:19;;;;;;;2.40;2.30;;;25.70;96.40;;;;;;4996907;28;20454;-90
2023/07/11 00:21:46;;;;;;;1.90;1.80;;;25.70;96.60;;;;;;4996807;28;20462;-90
2023/07/11 00:27:37;;;;;;;2.03;1.80;;;25.80;96.50;;;;;;4996875;28;20420;-91
2023/07/11 00:33:25;;;;;;;2.23;2.03;;;25.80;96.50;;;;;;4996480;28;20466;-90
2023/07/11 00:39:16;;;;;;;2.43;1.93;;;25.70;96.40;;;;;;4996477;28;20904;-91
2023/07/11 00:45:06;;;;;;;2.37;2.17;;;25.70;96.60;;;;;;4996283;28;20400;-90
2023/07/11 00:47:33;;;;;;;1.73;1.63;;;25.70;96.80;;;;;;4996465;28;20446;-90
2023/07/11 00:53:22;;;;;;;1.90;1.70;;;25.70;96.40;;;;;;4996029;28;20530;-91
2023/07/11 00:59:15;;;;;;;2.90;1.80;;;25.70;96.60;;;;;;4995971;28;20458;-90
2023/07/11 01:05:04;;;;;;;2.17;1.97;;;25.70;96.50;;;;;;4995951;28;20960;-90
2023/07/11 01:14:29;;;;;;;2.20;2.00;;;25.70;96.50;;;;;;4995797;28;20414;-90
2023/07/11 01:20:18;;;;;;;2.30;2.10;;;25.70;96.40;;;;;;4995685;28;20424;-89
2023/07/11 01:26:08;;;;;;;1.70;1.60;;;25.70;96.30;;;;;;4995544;28;20400;-90
2023/07/11 01:28:35;;;;;;;2.20;1.60;;;25.60;96.30;;;;;;4995385;28;20444;-90
2023/07/11 01:34:25;;;;;;;1.43;1.30;;;25.70;96.20;;;;;;4995345;28;20466;-90
2023/07/11 01:40:14;;;;;;;1.90;1.80;;;25.70;96.20;;;;;;4995648;28;20450;-91
2023/07/11 01:42:43;;;;;;;1.80;1.60;;;25.60;96.30;;;;;;4995148;28;20452;-89
2023/07/11 01:48:31;;;;;;;1.70;1.60;;;25.70;96.30;;;;;;4995201;28;20432;-90
2023/07/11 01:54:20;;;;;;;2.87;1.77;;;25.70;96.20;;;;;;4994939;28;20420;-90
2023/07/11 02:00:11;;;;;;;2.10;1.90;;;25.70;96.30;;;;;;4994858;28;20459;-90
2023/07/11 02:02:38;;;;;;;2.40;1.80;;;25.60;96.30;;;;;;4994946;28;20448;-91
2023/07/11 02:05:06;;;;;;;3.67;1.70;;;25.60;96.30;;;;;;4994970;28;20450;-90
2023/07/11 02:10:54;;;;;;;1.83;1.73;;;25.70;96.40;;;;;;4994716;28;20455;-89
2023/07/11 02:16:45;;;;;;;2.07;1.97;;;25.70;96.40;;;;;;4994606;28;20438;-90
2023/07/11 02:22:33;;;;;;;2.00;1.80;;;25.60;96.50;;;;;;4994608;28;20459;-90
2023/07/11 02:28:21;;;;;;;2.47;2.27;;;25.60;96.50;;;;;;4994504;28;20404;-90
2023/07/11 02:34:11;;;;;;;2.27;2.07;;;25.60;96.40;;;;;;4994312;28;20471;-90
2023/07/11 02:40:00;;;;;;;2.30;2.10;;;25.70;96.40;;;;;;4994324;28;20400;-91
2023/07/11 02:45:48;;;;;;;1.87;1.77;;;25.60;96.30;;;;;;4994257;28;20444;-91
2023/07/11 02:48:15;;;;;;;1.80;1.43;;;25.60;96.40;;;;;;4994054;28;20449;-90
2023/07/11 02:50:44;;;;;;;2.67;1.90;;;25.60;96.40;;;;;;4994312;28;20449;-90
2023/07/11 02:56:32;;;;;;;1.70;1.60;;;25.60;96.40;;;;;;4994138;28;20406;-90
2023/07/11 03:02:21;;;;;;;2.50;2.30;;;25.60;96.30;;;;;;4994081;28;20475;-90
2023/07/11 03:08:11;;;;;;;1.70;1.60;;;25.60;96.50;;;;;;4994514;28;20397;-90
2023/07/11 03:10:38;;;;;;;2.00;1.80;;;25.60;96.50;;;;;;4994078;28;20481;-89
2023/07/11 03:16:29;;;;;;;2.07;1.93;;;25.60;96.40;;;;;;4994372;28;20411;-90
2023/07/11 03:22:18;;;;;;;2.20;1.90;;;25.60;96.40;;;;;;4994332;28;20417;-90
2023/07/11 03:28:09;;;;;;;1.60;1.50;;;25.60;96.30;;;;;;4993910;28;20456;-90
2023/07/11 03:33:57;;;;;;;2.37;1.90;;;25.60;96.40;;;;;;4997954;28;20510;-90
2023/07/11 03:39:46;;;;;;;1.77;1.63;;;25.60;96.30;;;;;;4997804;28;20402;-89
2023/07/11 03:45:36;;;;;;;2.00;1.90;;;25.60;96.30;;;;;;4997743;28;20405;-91
2023/07/11 03:51:25;;;;;;;1.70;1.60;;;25.60;96.30;;;;;;4997372;28;20466;-91
2023/07/11 03:57:13;;;;;;;1.90;1.50;;;25.60;96.60;;;;;;4997129;28;20407;-91
2023/07/11 04:03:03;;;;;;;1.47;1.37;;;25.60;96.40;;;;;;4997096;28;20435;-90
2023/07/11 04:08:52;;;;;;;1.60;1.50;;;25.60;96.10;;;;;;4997127;28;20465;-90
2023/07/11 04:14:41;;;;;;;2.17;2.00;;;25.60;96.30;;;;;;4996809;28;20459;-90
2023/07/11 04:17:08;;;;;;;1.80;1.70;;;25.60;96.40;;;;;;4996699;28;20459;-91
2023/07/11 04:22:58;;;;;;;2.90;1.50;;;25.60;96.40;;;;;;4996876;28;20432;-88
2023/07/11 04:28:47;;;;;;;4.90;2.23;;;25.60;95.70;;;;;;4996611;28;20451;-90
2023/07/11 04:34:35;;;;;;;2.03;1.83;;;25.60;93.90;;;;;;4996867;28;20517;-94
2023/07/11 04:37:02;;;;;;;2.13;1.67;;;25.50;94.00;;;;;;4996296;28;20446;-90
2023/07/11 04:42:52;;;;;;;3.23;2.57;;;25.40;93.70;;;;;;4995878;28;20405;-95
2023/07/11 04:48:40;;;;;;;3.33;2.80;;;25.40;93.70;;;;;;4996701;28;20446;-85
2023/07/11 04:54:29;;;;;;;2.97;2.20;;;25.40;93.50;;;;;;4996162;28;20467;-84
2023/07/11 05:00:19;;;;;;;3.27;2.20;;;25.40;93.50;;;;;;4996564;28;20761;-93
2023/07/11 05:06:09;;;;;;;3.10;2.00;;;25.30;93.40;;;;;;4996314;28;20998;-84
2023/07/11 05:08:36;;;;;;;4.63;1.60;;;25.30;93.60;;;;;;4996096;28;20443;-84
2023/07/11 05:11:07;;;;;;;5.23;2.10;;;25.30;93.30;;;;;;4995845;28;20482;-84
2023/07/11 05:16:56;;;;;;;2.67;2.10;;;25.30;93.10;;;;;;4995776;28;20443;-84
2023/07/11 05:22:45;;;;;;;4.50;2.40;;;25.30;93.10;;;;;;4995569;28;20763;-84
2023/07/11 05:28:33;;;;;;;2.27;2.00;;;25.40;93.10;;;;;;4995804;28;20480;-84
2023/07/11 05:34:25;;;;;;;4.37;2.57;;;25.30;93.10;;;;;;4995648;28;20888;-96
2023/07/11 05:40:14;;;;;;;2.60;2.03;;;25.40;93.60;;;;;;4995350;28;20758;-90
2023/07/11 05:46:16;;;;;;;5.13;2.50;;;25.30;93.50;;;;;;4995160;28;20758;-90
